K4MDI Weather Reports


Display with metric or nautical units.
time (UTC)temp
F
wind
direction
speed
MPH
gust
MPH
rain 1hr
in
rain 24hr
in
rain mn
in
humidity
%
barometer
mb
20190624090100 69 129 0.0 0.0 0.00 0.57 0.00 91 1012.9
20190624084534 70 129 0.0 0.0 0.00 0.57 0.00 91 1012.9
20190624083052 70 129 0.0 0.0 0.00 0.57 0.00 90 1013.0
20190624081531 70 129 0.0 0.0 0.00 0.57 0.00 90 1013.0
20190624080025 70 129 0.0 0.0 0.00 0.57 0.00 90 1013.0
20190624074557 70 129 0.0 0.0 0.00 0.57 0.00 90 1013.1
20190624073041 69 129 0.0 0.0 0.00 0.57 0.00 90 1013.4
20190624071542 69 129 0.0 0.0 0.00 0.57 0.00 90 1013.7
20190624070030 69 128 0.0 0.0 0.00 0.57 0.00 90 1013.8
20190624064518 69 128 0.0 0.0 0.00 0.57 0.00 90 1014.0
20190624063011 69 128 0.0 0.0 0.00 0.57 0.00 90 1014.0
20190624061508 69 128 0.0 0.0 0.00 0.57 0.00 90 1014.0
20190624060006 70 128 0.0 0.0 0.00 0.57 0.00 90 1014.1
20190624054517 70 128 0.0 0.0 0.00 0.57 0.00 90 1014.1
20190624053015 70 128 0.0 0.0 0.00 0.57 0.00 90 1014.2
20190624051730 70 128 0.0 0.0 0.00 0.57 0.00 90 1014.0
20190624050113 70 128 0.0 0.0 0.00 0.57 0.00 90 1014.1
20190624044623 70 128 0.0 0.0 0.00 0.57 0.00 90 1014.2
20190624043148 70 128 0.0 0.0 0.00 0.57 0.00 90 1014.4
20190624041644 71 128 0.0 0.0 0.00 0.57 0.00 90 1014.3
20190624040120 71 128 0.0 0.0 0.00 0.57 0.00 90 1014.2
20190624034754 71 128 0.0 0.0 0.00 0.57 0.57 90 1014.4
20190624033147 71 128 0.0 0.0 0.00 0.57 0.57 91 1014.6
20190624031611 72 128 0.0 0.0 0.00 0.57 0.57 91 1014.6
20190624030134 72 128 0.0 0.0 0.00 0.57 0.57 91 1014.7
20190624024616 72 128 0.0 0.0 0.00 0.57 0.57 91 1014.6
20190624023328 73 128 0.0 0.0 0.00 0.57 0.57 91 1014.5
20190624021634 73 128 0.0 0.0 0.00 0.57 0.57 91 1014.3
20190624020126 73 128 0.0 0.0 0.00 0.57 0.57 91 1014.2
20190624014604 74 128 0.0 0.0 0.00 0.57 0.57 91 1014.3
20190624013142 74 128 0.0 0.0 0.00 0.57 0.57 90 1014.0
20190624011639 75 128 0.0 0.0 0.00 0.57 0.57 90 1014.0
20190624010054 75 128 0.0 0.0 0.00 0.57 0.57 89 1013.9
20190624004620 76 127 0.0 0.0 0.00 0.57 0.57 89 1013.7
20190624003113 76 127 0.0 0.0 0.00 0.57 0.57 88 1013.9
20190624001711 77 127 0.0 0.0 0.00 0.57 0.57 87 1014.1
20190624000052 77 127 0.0 0.0 0.00 0.57 0.57 86 1013.8
20190623234606 78 127 0.0 0.0 0.00 0.57 0.57 85 1013.8
20190623233102 78 127 0.0 0.0 0.00 0.57 0.57 86 1013.8
20190623231619 79 126 0.0 0.0 0.00 0.57 0.57 85 1014.1
20190623230114 79 126 0.0 1.0 0.00 0.57 0.57 84 1013.8
20190623224607 79 126 0.0 0.0 0.00 0.57 0.57 84 1013.7
20190623223200 79 126 0.0 0.0 0.00 0.57 0.57 85 1013.7
20190623221552 80 126 0.0 0.0 0.00 0.57 0.57 85 1013.6
20190623220109 80 125 0.0 1.0 0.00 0.57 0.57 85 1013.9
20190623214614 79 123 0.0 1.0 0.00 0.57 0.57 83 1013.9
20190623213111 79 127 0.0 1.0 0.00 0.57 0.57 86 1014.1
20190623211605 78 152 0.0 1.0 0.00 0.57 0.57 87 1014.2
20190623210058 77 127 0.0 1.0 0.00 0.57 0.57 86 1014.2
20190623204640 76 131 0.0 1.0 0.00 0.57 0.57 91 1014.3
20190623203127 74 141 0.0 0.0 0.00 0.57 0.57 91 1014.6
20190623201545 74 141 0.0 0.0 0.00 0.57 0.57 90 1015.0
20190623200039 72 122 0.0 0.0 0.00 0.57 0.57 90 1015.3
20190623194625 70 122 0.0 0.0 0.01 0.57 0.57 90 1015.6
20190623193100 69 122 0.0 0.0 0.21 0.57 0.57 91 1015.7
20190623191659 69 122 0.0 1.0 0.57 0.57 0.57 91 1016.0
20190623190101 69 120 0.0 0.0 0.57 0.57 0.57 91 1015.6
20190623184557 70 122 0.0 1.0 0.56 0.56 0.56 90 1016.2
20190623183121 73 23 1.0 4.0 0.35 0.35 0.35 85 1016.9
20190623181540 81 143 1.0 2.0 0.00 0.00 0.00 81 1016.6
20190623180113 80 5 0.0 1.0 0.00 0.00 0.00 83 1015.8
20190623174610 82 60 0.0 2.0 0.00 0.00 0.00 78 1015.8
20190623173052 85 27 0.0 1.0 0.00 0.00 0.00 71 1015.8
20190623171548 85 43 0.0 2.0 0.00 0.00 0.00 70 1015.6
20190623170042 85 27 0.0 2.0 0.00 0.00 0.00 69 1015.7
20190623164538 84 8 1.0 4.0 0.00 0.00 0.00 70 1016.1
20190623163015 83 52 0.0 2.0 0.00 0.00 0.00 72 1016.2
20190623161510 82 80 0.0 2.0 0.00 0.00 0.00 73 1016.2
20190623160009 82 22 0.0 2.0 0.00 0.00 0.00 74 1016.3
20190623154521 81 359 0.0 2.0 0.00 0.00 0.00 72 1016.4
20190623153223 80 24 0.0 3.0 0.00 0.00 0.00 73 1016.4
20190623151747 80 24 0.0 2.0 0.00 0.00 0.00 74 1016.6
20190623150220 79 21 0.0 3.0 0.00 0.00 0.00 77 1016.7
20190623144614 79 155 0.0 1.0 0.00 0.00 0.00 78 1016.5
20190623143113 78 148 0.0 1.0 0.00 0.00 0.00 80 1016.3
20190623141706 77 155 0.0 1.0 0.00 0.00 0.00 80 1016.3
20190623140111 77 139 0.0 1.0 0.00 0.00 0.00 84 1016.5
20190623134657 76 139 0.0 1.0 0.00 0.00 0.00 85 1016.5
20190623133108 75 138 0.0 1.0 0.00 0.00 0.00 85 1016.6
20190623131605 75 139 0.0 1.0 0.00 0.00 0.00 88 1016.6
20190623130043 74 138 0.0 1.0 0.00 0.00 0.00 88 1016.6
20190623124554 72 155 0.0 0.0 0.00 0.00 0.00 91 1016.6
20190623123052 71 155 0.0 0.0 0.00 0.00 0.00 90 1016.6
20190623121549 70 155 0.0 0.0 0.00 0.00 0.00 90 1016.5
20190623120051 70 155 0.0 0.0 0.00 0.00 0.00 90 1016.4
20190623114530 69 155 0.0 0.0 0.00 0.00 0.00 90 1016.4
20190623113056 68 155 0.0 0.0 0.00 0.00 0.00 90 1016.4
20190623111640 68 155 0.0 0.0 0.00 0.00 0.00 90 1016.4
20190623110054 68 155 0.0 0.0 0.00 0.00 0.00 91 1016.4
20190623104630 68 155 0.0 0.0 0.00 0.00 0.00 91 1016.3
20190623103041 68 155 0.0 0.0 0.00 0.00 0.00 91 1016.1
20190623101608 68 155 0.0 0.0 0.00 0.00 0.00 91 1016.0
20190623100019 68 155 0.0 0.0 0.00 0.00 0.00 91 1015.6
20190623094535 68 155 0.0 0.0 0.00 0.00 0.00 91 1015.6
20190623093019 68 155 0.0 0.0 0.00 0.00 0.00 91 1015.2
20190623091521 68 155 0.0 0.0 0.00 0.00 0.00 91 1015.1